Terminal Aerodrome Forecast
Issued by NWS

Home | Current Version | Previous Version | Text Only | Print | Product List | Glossary On
Versions: 1 2 3 4 5 6 7 8 9 10 11 12 13 14 15
000
FTUS43 KIWX 302340
TAFSBN
TAF
KSBN 302340Z 0100/0124 08010KT 2SM -RA BR OVC008
     FM010300 08008KT 3SM BR OVC006
      TEMPO 0109/0113 2SM BR OVC003
     FM011500 02008KT P6SM BKN015=

USA.gov is the U.S. government's official web portal to all federal, state and local government web resources and services.